createdAt,value
2023-04-16T00:00:42.576Z,250.00
2023-04-16T00:01:42.612Z,248.70
2023-04-16T00:02:42.714Z,250.00
2023-04-16T00:03:42.726Z,249.92
2023-04-16T00:04:42.744Z,246.49
2023-04-16T00:05:42.648Z,248.41
2023-04-16T00:06:42.620Z,249.55
2023-04-16T00:07:42.664Z,248.18
2023-04-16T00:08:42.676Z,248.03
2023-04-16T00:09:42.738Z,247.84
2023-04-16T00:10:42.732Z,248.07
2023-04-16T00:11:42.730Z,248.56
2023-04-16T00:12:42.747Z,250.00
2023-04-16T00:13:42.797Z,247.54
2023-04-16T00:14:42.772Z,248.89
2023-04-16T00:15:42.837Z,247.08
2023-04-16T00:16:42.883Z,250.63
2023-04-16T00:17:42.915Z,249.73
2023-04-16T00:18:42.883Z,250.00
2023-04-16T00:19:42.915Z,249.18
2023-04-16T00:20:42.923Z,250.00
2023-04-16T00:21:42.904Z,247.47
2023-04-16T00:22:43.036Z,248.83
2023-04-16T00:23:42.987Z,248.03
2023-04-16T00:24:43.001Z,247.75
2023-04-16T00:25:43.028Z,249.02
2023-04-16T00:26:43.084Z,248.11
2023-04-16T00:27:43.102Z,248.55
2023-04-16T00:28:43.129Z,248.90
2023-04-16T00:29:43.165Z,250.00
2023-04-16T00:30:43.175Z,247.55
2023-04-16T00:31:43.175Z,245.47
2023-04-16T00:32:43.282Z,247.57
2023-04-16T00:33:43.274Z,247.93
2023-04-16T00:34:43.251Z,249.50
2023-04-16T00:35:43.291Z,248.73
2023-04-16T00:36:43.311Z,246.53
2023-04-16T00:37:43.344Z,248.65
2023-04-16T00:38:43.382Z,248.21
2023-04-16T00:39:43.397Z,248.77
2023-04-16T00:40:43.426Z,249.14
2023-04-16T00:41:43.413Z,248.72
2023-04-16T00:42:43.434Z,247.20
2023-04-16T00:43:43.456Z,248.58
2023-04-16T00:44:43.529Z,249.17
2023-04-16T00:45:43.504Z,248.87
2023-04-16T00:46:43.547Z,248.70
2023-04-16T00:47:43.644Z,249.62
2023-04-16T00:48:43.571Z,247.93
2023-04-16T00:49:43.638Z,247.92
2023-04-16T00:50:43.618Z,246.37
2023-04-16T00:51:43.654Z,245.46
2023-04-16T00:52:43.647Z,246.57
2023-04-16T00:53:43.717Z,247.20
2023-04-16T00:54:43.717Z,248.61
2023-04-16T00:55:43.793Z,248.85
2023-04-16T00:56:43.802Z,248.08
2023-04-16T00:57:43.803Z,250.00
2023-04-16T00:58:43.819Z,247.90
2023-04-16T00:59:43.892Z,248.22
2023-04-16T01:00:43.852Z,247.50
2023-04-16T01:01:43.943Z,246.06
2023-04-16T01:02:44.047Z,248.61
2023-04-16T01:03:44.183Z,247.76
2023-04-16T01:04:43.948Z,247.96
2023-04-16T01:05:44.017Z,245.96
2023-04-16T01:06:44.053Z,245.19
2023-04-16T01:07:44.061Z,244.01
2023-04-16T01:08:44.096Z,243.27
2023-04-16T01:09:44.146Z,243.94
2023-04-16T01:10:44.146Z,244.61
2023-04-16T01:11:44.160Z,242.75
2023-04-16T01:12:44.219Z,243.27
2023-04-16T01:13:44.235Z,242.84
2023-04-16T01:14:44.270Z,241.44
2023-04-16T01:15:44.501Z,240.02
2023-04-16T01:16:44.317Z,238.85
2023-04-16T01:17:44.417Z,237.19
2023-04-16T01:18:44.359Z,236.08
2023-04-16T01:19:44.422Z,234.44
2023-04-16T01:20:44.416Z,234.16
2023-04-16T01:21:44.477Z,233.20
2023-04-16T01:22:44.495Z,233.39
2023-04-16T01:23:44.515Z,234.52
2023-04-16T01:24:44.563Z,232.01
2023-04-16T01:25:44.586Z,233.11
2023-04-16T01:26:44.580Z,233.89
2023-04-16T01:27:44.587Z,230.69
2023-04-16T01:28:44.641Z,231.34
2023-04-16T01:29:44.686Z,231.74
2023-04-16T01:30:44.731Z,231.83
2023-04-16T01:31:44.911Z,234.37
2023-04-16T01:32:44.832Z,232.85
2023-04-16T01:33:44.765Z,233.70
2023-04-16T01:34:44.822Z,232.95
2023-04-16T01:35:44.808Z,232.73
2023-04-16T01:36:44.846Z,231.65
2023-04-16T01:37:44.917Z,231.79
2023-04-16T01:38:44.902Z,233.55
2023-04-16T01:39:44.973Z,231.16
2023-04-16T01:40:44.948Z,232.08
2023-04-16T01:41:45.020Z,232.02
2023-04-16T01:42:45.042Z,230.61
2023-04-16T01:43:45.099Z,229.09
2023-04-16T01:44:45.172Z,228.94
2023-04-16T01:45:45.104Z,227.47
2023-04-16T01:46:45.240Z,227.81
2023-04-16T01:47:45.230Z,226.47
2023-04-16T01:48:45.234Z,225.13
2023-04-16T01:49:45.214Z,224.85
2023-04-16T01:50:45.244Z,226.28
2023-04-16T01:51:45.267Z,223.19
2023-04-16T01:52:45.300Z,224.20
2023-04-16T01:53:45.317Z,225.43
2023-04-16T01:54:45.352Z,226.60
2023-04-16T01:55:45.405Z,225.08
2023-04-16T01:56:45.431Z,226.90
2023-04-16T01:57:45.446Z,227.99
2023-04-16T01:58:45.454Z,229.81
2023-04-16T01:59:45.533Z,230.95
2023-04-16T02:00:45.651Z,233.62
2023-04-16T02:01:45.585Z,231.92
2023-04-16T02:02:45.706Z,232.81
2023-04-16T02:03:45.726Z,234.93
2023-04-16T02:04:45.644Z,232.23
2023-04-16T02:05:45.706Z,232.62
2023-04-16T02:06:45.710Z,233.74
2023-04-16T02:07:45.746Z,235.61
2023-04-16T02:08:45.760Z,235.26
2023-04-16T02:09:45.800Z,234.23
2023-04-16T02:10:45.821Z,232.92
2023-04-16T02:11:45.878Z,235.48
2023-04-16T02:12:45.906Z,238.38
2023-04-16T02:13:45.904Z,237.36
2023-04-16T02:14:45.942Z,238.48
2023-04-16T02:15:45.979Z,239.32
2023-04-16T02:16:46.003Z,242.07
2023-04-16T02:17:46.017Z,242.07
2023-04-16T02:18:46.014Z,242.42
2023-04-16T02:19:46.093Z,240.52
2023-04-16T02:20:46.097Z,241.20
2023-04-16T02:21:46.091Z,243.85
2023-04-16T02:22:46.171Z,242.85
2023-04-16T02:23:46.157Z,245.29
2023-04-16T02:24:46.226Z,247.81
2023-04-16T02:25:46.250Z,245.01
2023-04-16T02:26:46.241Z,245.86
2023-04-16T02:27:46.291Z,243.42
2023-04-16T02:28:46.334Z,245.17
2023-04-16T02:29:46.337Z,248.42
2023-04-16T02:30:46.393Z,249.26
2023-04-16T02:31:46.420Z,248.98
2023-04-16T02:32:46.412Z,249.64
2023-04-16T02:33:46.437Z,249.08
2023-04-16T02:34:46.448Z,248.94
2023-04-16T02:35:46.461Z,247.37
2023-04-16T02:36:46.484Z,247.29
2023-04-16T02:37:46.537Z,243.41
2023-04-16T02:38:46.586Z,243.16
2023-04-16T02:39:46.596Z,242.71
2023-04-16T02:40:46.604Z,243.34
2023-04-16T02:41:46.611Z,243.36
2023-04-16T02:42:46.664Z,239.20
2023-04-16T02:43:46.674Z,239.99
2023-04-16T02:44:46.723Z,240.72
2023-04-16T02:45:46.745Z,242.55
2023-04-16T02:46:46.743Z,240.22
2023-04-16T02:47:46.855Z,241.50
2023-04-16T02:48:46.829Z,241.54
2023-04-16T02:49:46.862Z,241.10
2023-04-16T02:50:46.890Z,241.78
2023-04-16T02:51:46.920Z,239.99
2023-04-16T02:52:46.952Z,242.03
2023-04-16T02:53:46.933Z,239.76
2023-04-16T02:54:47.077Z,238.00
2023-04-16T02:55:47.012Z,234.10
2023-04-16T02:56:47.040Z,231.47
2023-04-16T02:57:47.038Z,231.19
2023-04-16T02:58:47.091Z,229.04
2023-04-16T02:59:47.149Z,227.42
2023-04-16T03:00:47.137Z,226.42
2023-04-16T03:01:47.188Z,223.78
2023-04-16T03:02:47.294Z,226.27
2023-04-16T03:03:47.213Z,226.09
2023-04-16T03:04:47.242Z,223.92
2023-04-16T03:05:47.256Z,224.04
2023-04-16T03:06:47.294Z,222.45
2023-04-16T03:07:47.340Z,221.04
2023-04-16T03:08:47.350Z,222.15
2023-04-16T03:09:48.178Z,219.23
2023-04-16T03:10:47.411Z,219.50
2023-04-16T03:11:47.443Z,217.91
2023-04-16T03:12:47.469Z,219.54
2023-04-16T03:13:47.491Z,217.74
2023-04-16T03:14:47.510Z,216.57
2023-04-16T03:15:47.585Z,216.65
2023-04-16T03:16:47.567Z,214.39
2023-04-16T03:17:47.613Z,215.41
2023-04-16T03:18:47.630Z,217.37
2023-04-16T03:19:47.643Z,215.20
2023-04-16T03:20:48.201Z,214.65
2023-04-16T03:21:47.731Z,214.94
2023-04-16T03:22:47.723Z,214.41
2023-04-16T03:23:47.765Z,215.84
2023-04-16T03:24:47.762Z,215.93
2023-04-16T03:25:47.797Z,215.27
2023-04-16T03:26:47.853Z,215.05
2023-04-16T03:27:47.857Z,215.64
2023-04-16T03:28:47.884Z,217.33
2023-04-16T03:29:47.942Z,216.31
2023-04-16T03:30:47.953Z,215.08
2023-04-16T03:31:47.983Z,214.11
2023-04-16T03:32:48.039Z,211.52
2023-04-16T03:33:48.007Z,211.68
2023-04-16T03:34:48.079Z,211.58
2023-04-16T03:35:48.058Z,211.03
2023-04-16T03:36:48.103Z,209.55
2023-04-16T03:37:48.114Z,210.28
2023-04-16T03:38:48.183Z,208.77
2023-04-16T03:39:48.174Z,206.36
2023-04-16T03:40:48.206Z,204.93
2023-04-16T03:41:48.221Z,202.21
2023-04-16T03:42:48.275Z,200.08
2023-04-16T03:43:48.291Z,196.68
2023-04-16T03:44:48.325Z,194.48
2023-04-16T03:45:48.291Z,192.15
2023-04-16T03:46:48.450Z,190.74
2023-04-16T03:47:48.428Z,189.22
2023-04-16T03:48:48.347Z,189.71
2023-04-16T03:49:48.408Z,188.59
2023-04-16T03:50:48.454Z,187.01
2023-04-16T03:51:48.482Z,188.17
2023-04-16T03:52:48.477Z,186.29
2023-04-16T03:53:48.532Z,187.13
2023-04-16T03:54:48.536Z,185.49
2023-04-16T03:55:48.531Z,186.86
2023-04-16T03:56:48.577Z,186.97
2023-04-16T03:57:48.629Z,183.84
2023-04-16T03:58:48.644Z,183.78
2023-04-16T03:59:48.671Z,183.64
2023-04-16T04:00:48.681Z,183.89
2023-04-16T04:01:48.857Z,181.92
2023-04-16T04:02:48.839Z,181.05
2023-04-16T04:03:48.908Z,179.31
2023-04-16T04:04:48.896Z,177.73
2023-04-16T04:05:48.789Z,177.20
2023-04-16T04:06:48.822Z,176.44
2023-04-16T04:07:48.870Z,176.11
2023-04-16T04:08:48.870Z,174.98
2023-04-16T04:09:48.921Z,173.55
2023-04-16T04:10:48.925Z,174.39
2023-04-16T04:11:48.978Z,175.05
2023-04-16T04:12:48.970Z,177.23
2023-04-16T04:13:49.040Z,177.29
2023-04-16T04:14:49.030Z,175.71
2023-04-16T04:15:49.083Z,176.52
2023-04-16T04:16:49.100Z,177.24
2023-04-16T04:17:49.165Z,176.71
2023-04-16T04:18:49.103Z,177.55
2023-04-16T04:20:00.356Z,178.79
2023-04-16T04:20:50.180Z,177.71
2023-04-16T04:21:49.135Z,175.54
2023-04-16T04:22:49.150Z,176.14
2023-04-16T04:23:49.152Z,174.94
2023-04-16T04:24:49.128Z,172.16
2023-04-16T04:25:49.171Z,173.83
2023-04-16T04:26:49.083Z,172.42
2023-04-16T04:27:49.093Z,173.02
2023-04-16T04:28:49.074Z,173.44
2023-04-16T04:29:49.152Z,174.47
2023-04-16T04:30:49.060Z,173.37
2023-04-16T04:31:49.094Z,173.88
2023-04-16T04:32:49.073Z,174.16
2023-04-16T04:33:49.076Z,177.85
2023-04-16T04:34:49.103Z,177.35
2023-04-16T04:35:49.028Z,178.03
2023-04-16T04:36:49.047Z,179.98
2023-04-16T04:37:49.040Z,178.95
2023-04-16T04:38:49.023Z,177.76
2023-04-16T04:39:49.068Z,175.42
2023-04-16T04:40:49.071Z,176.30
2023-04-16T04:41:49.140Z,178.02
2023-04-16T04:42:49.186Z,178.12
2023-04-16T04:43:49.184Z,180.14
2023-04-16T04:44:49.241Z,178.28
2023-04-16T04:45:49.547Z,178.01
2023-04-16T04:46:49.222Z,177.23
2023-04-16T04:47:49.425Z,175.67
2023-04-16T04:48:49.270Z,174.83
2023-04-16T04:49:49.314Z,175.08
2023-04-16T04:50:49.340Z,174.81
2023-04-16T04:51:49.432Z,176.18
2023-04-16T04:52:49.398Z,173.95
2023-04-16T04:53:49.433Z,175.13
2023-04-16T04:54:49.465Z,175.04
2023-04-16T04:55:53.101Z,171.40
2023-04-16T04:56:49.441Z,171.51
2023-04-16T04:57:49.442Z,170.87
2023-04-16T04:58:49.441Z,171.76
2023-04-16T04:59:49.454Z,172.16
2023-04-16T05:00:49.460Z,171.73
2023-04-16T05:01:49.443Z,171.10
2023-04-16T05:02:49.603Z,168.64
2023-04-16T05:03:49.489Z,169.39
2023-04-16T05:04:49.436Z,167.80
2023-04-16T05:05:49.387Z,170.01
2023-04-16T05:06:49.391Z,170.15
2023-04-16T05:07:49.371Z,167.80
2023-04-16T05:08:49.363Z,169.50
2023-04-16T05:09:49.372Z,168.00
2023-04-16T05:10:49.328Z,167.21
2023-04-16T05:11:49.325Z,167.55
2023-04-16T05:12:49.345Z,167.75
2023-04-16T05:13:49.321Z,164.96
2023-04-16T05:14:49.317Z,165.09
2023-04-16T05:15:49.305Z,164.16
2023-04-16T05:16:49.355Z,161.60
2023-04-16T05:17:49.333Z,162.54
2023-04-16T05:18:49.298Z,161.91
2023-04-16T05:19:49.300Z,163.25
2023-04-16T05:20:49.293Z,163.96
2023-04-16T05:21:49.251Z,160.37
2023-04-16T05:22:49.304Z,159.73
2023-04-16T05:23:49.253Z,160.47
2023-04-16T05:24:49.336Z,160.29
2023-04-16T05:25:49.326Z,158.91
2023-04-16T05:26:49.342Z,158.13
2023-04-16T05:27:49.377Z,156.18
2023-04-16T05:28:49.384Z,155.08
2023-04-16T05:29:49.455Z,155.96
2023-04-16T05:30:49.472Z,155.92
2023-04-16T05:31:49.499Z,154.07
2023-04-16T05:32:49.534Z,154.01
2023-04-16T05:34:49.557Z,154.53
2023-04-16T05:35:49.572Z,152.76
2023-04-16T05:36:49.592Z,149.78
2023-04-16T05:37:49.572Z,152.16
2023-04-16T05:38:49.621Z,150.41
2023-04-16T05:39:49.655Z,151.71
2023-04-16T05:40:49.651Z,148.97
2023-04-16T05:41:49.675Z,148.75
2023-04-16T05:42:49.720Z,148.50
2023-04-16T05:43:49.713Z,148.53
2023-04-16T05:44:49.741Z,148.52
2023-04-16T05:45:49.795Z,147.72
2023-04-16T05:46:49.804Z,146.91
2023-04-16T05:47:49.836Z,148.59
2023-04-16T05:48:49.836Z,148.24
2023-04-16T05:49:49.880Z,146.92
2023-04-16T05:50:49.899Z,146.64
2023-04-16T05:51:50.947Z,146.18
2023-04-16T05:52:49.964Z,145.08
2023-04-16T05:53:49.961Z,141.77
2023-04-16T05:54:50.020Z,142.56
2023-04-16T05:55:50.024Z,142.66
2023-04-16T05:56:50.033Z,144.09
2023-04-16T05:57:50.092Z,143.18
2023-04-16T05:58:50.103Z,144.83
2023-04-16T05:59:50.087Z,143.45
2023-04-16T06:00:50.160Z,143.49
2023-04-16T06:01:50.220Z,141.92
2023-04-16T06:02:50.290Z,139.35
2023-04-16T06:03:50.257Z,140.30
2023-04-16T06:04:50.242Z,141.97
2023-04-16T06:05:50.258Z,140.96
2023-04-16T06:06:50.250Z,139.23
2023-04-16T06:07:50.317Z,140.07
2023-04-16T06:08:50.358Z,139.66
2023-04-16T06:09:50.327Z,140.12
2023-04-16T06:10:50.390Z,138.56
2023-04-16T06:11:50.393Z,140.84
2023-04-16T06:12:50.499Z,138.62
2023-04-16T06:13:50.463Z,137.90
2023-04-16T06:14:50.518Z,137.66
2023-04-16T06:15:50.529Z,135.76
2023-04-16T06:16:50.529Z,135.80
2023-04-16T06:17:50.571Z,137.39
2023-04-16T06:18:50.587Z,137.77
2023-04-16T06:19:50.632Z,136.64
2023-04-16T06:20:50.654Z,134.80
2023-04-16T06:21:50.655Z,136.31
2023-04-16T06:22:50.688Z,135.24
2023-04-16T06:23:50.741Z,135.48
2023-04-16T06:24:50.733Z,132.63
2023-04-16T06:25:50.745Z,134.10
2023-04-16T06:26:50.764Z,136.09
2023-04-16T06:27:50.809Z,134.37
2023-04-16T06:28:50.858Z,131.07
2023-04-16T06:29:50.884Z,132.80
2023-04-16T06:30:50.880Z,132.64
2023-04-16T06:31:50.953Z,133.49
2023-04-16T06:32:51.018Z,130.49
2023-04-16T06:33:50.956Z,129.74
2023-04-16T06:34:51.017Z,130.46
2023-04-16T06:35:51.029Z,130.51
2023-04-16T06:36:51.038Z,128.48
2023-04-16T06:37:51.084Z,130.03
2023-04-16T06:38:51.093Z,132.69
2023-04-16T06:39:51.176Z,129.11
2023-04-16T06:40:51.246Z,127.60
2023-04-16T06:41:51.177Z,126.19
2023-04-16T06:42:51.235Z,127.94
2023-04-16T06:43:51.205Z,125.25
2023-04-16T06:44:51.266Z,125.01
2023-04-16T06:45:51.286Z,125.05
2023-04-16T06:46:51.326Z,125.65
2023-04-16T06:47:51.382Z,122.00
2023-04-16T06:48:51.375Z,124.24
2023-04-16T06:49:51.383Z,121.68
2023-04-16T06:50:51.438Z,122.03
2023-04-16T06:51:51.406Z,121.73
2023-04-16T06:52:51.434Z,121.57
2023-04-16T06:53:51.510Z,123.32
2023-04-16T06:54:51.577Z,121.47
2023-04-16T06:55:51.511Z,122.39
2023-04-16T06:56:51.536Z,121.35
2023-04-16T06:57:51.569Z,122.48
2023-04-16T06:58:51.585Z,121.95
2023-04-16T06:59:51.626Z,121.18
2023-04-16T07:00:51.737Z,120.55
2023-04-16T07:01:51.770Z,121.34
2023-04-16T07:02:51.825Z,120.48
2023-04-16T07:03:51.959Z,120.35
2023-04-16T07:04:51.737Z,119.90
2023-04-16T07:05:51.764Z,117.81
2023-04-16T07:06:51.807Z,118.90
2023-04-16T07:07:51.823Z,118.72
2023-04-16T07:08:51.827Z,118.66
2023-04-16T07:09:51.853Z,117.43
2023-04-16T07:10:51.846Z,116.20
2023-04-16T07:11:51.901Z,117.32
2023-04-16T07:12:51.913Z,118.60
2023-04-16T07:13:51.928Z,116.15
2023-04-16T07:14:51.992Z,114.22
2023-04-16T07:15:51.998Z,115.47
2023-04-16T07:16:52.122Z,112.81
2023-04-16T07:17:52.103Z,115.73
2023-04-16T07:18:52.042Z,109.46
2023-04-16T07:19:52.114Z,113.03
2023-04-16T07:20:52.112Z,113.36
2023-04-16T07:21:52.154Z,113.75
2023-04-16T07:22:52.161Z,111.35
2023-04-16T07:23:52.211Z,111.61
2023-04-16T07:24:52.263Z,110.60
2023-04-16T07:25:52.262Z,111.91
2023-04-16T07:26:52.290Z,110.60
2023-04-16T07:27:52.277Z,111.74
2023-04-16T07:28:52.310Z,112.26
2023-04-16T07:29:52.396Z,113.27
2023-04-16T07:30:52.396Z,111.41
2023-04-16T07:31:52.440Z,111.88
2023-04-16T07:32:52.507Z,108.89
2023-04-16T07:33:52.462Z,108.64
2023-04-16T07:34:52.480Z,107.75
2023-04-16T07:35:52.519Z,108.25
2023-04-16T07:36:52.548Z,109.65
2023-04-16T07:37:52.589Z,105.52
2023-04-16T07:38:52.583Z,109.59
2023-04-16T07:39:53.094Z,107.80
2023-04-16T07:40:52.652Z,106.98
2023-04-16T07:41:52.701Z,107.16
2023-04-16T07:42:52.756Z,105.99
2023-04-16T07:43:52.750Z,105.88
2023-04-16T07:44:52.769Z,104.80
2023-04-16T07:45:52.878Z,104.99
2023-04-16T07:46:52.943Z,106.04
2023-04-16T07:47:52.913Z,104.31
2023-04-16T07:48:52.944Z,103.31
2023-04-16T07:49:52.923Z,103.56
2023-04-16T07:50:52.915Z,104.21
2023-04-16T07:51:52.945Z,103.11
2023-04-16T07:52:53.000Z,103.39
2023-04-16T07:53:53.012Z,102.36
2023-04-16T07:54:53.067Z,103.00
2023-04-16T07:55:53.059Z,103.63
2023-04-16T07:56:53.120Z,104.89
2023-04-16T07:57:53.131Z,103.74
2023-04-16T07:58:53.129Z,103.04
2023-04-16T07:59:53.164Z,101.72
2023-04-16T08:00:53.220Z,103.83
2023-04-16T08:01:53.299Z,103.33
2023-04-16T08:02:53.396Z,102.08
2023-04-16T08:03:53.421Z,101.14
2023-04-16T08:04:53.391Z,100.28
2023-04-16T08:05:53.346Z,97.61
2023-04-16T08:06:53.387Z,98.00
2023-04-16T08:07:53.360Z,96.42
2023-04-16T08:08:53.429Z,95.98
2023-04-16T08:09:53.459Z,97.51
2023-04-16T08:10:53.461Z,96.37
2023-04-16T08:11:53.494Z,93.69
2023-04-16T08:12:53.495Z,93.73
2023-04-16T08:13:53.507Z,90.62
2023-04-16T08:14:53.674Z,89.99
2023-04-16T08:15:53.599Z,90.28
2023-04-16T08:16:53.646Z,87.15
2023-04-16T08:17:53.741Z,85.67
2023-04-16T08:18:53.688Z,87.68
2023-04-16T08:19:53.747Z,86.52
2023-04-16T08:20:53.715Z,85.52
2023-04-16T08:21:53.737Z,86.62
2023-04-16T08:22:53.775Z,86.65
2023-04-16T08:23:53.770Z,83.48
2023-04-16T08:24:53.819Z,84.53
2023-04-16T08:25:53.839Z,86.74
2023-04-16T08:26:53.903Z,87.60
2023-04-16T08:27:53.882Z,88.00
2023-04-16T08:28:53.919Z,87.06
2023-04-16T08:29:53.971Z,87.04
2023-04-16T08:30:53.974Z,86.72
2023-04-16T08:31:54.085Z,86.03
2023-04-16T08:32:54.388Z,83.83
2023-04-16T08:33:54.096Z,82.79
2023-04-16T08:34:54.122Z,81.76
2023-04-16T08:35:54.157Z,82.10
2023-04-16T08:36:54.152Z,82.40
2023-04-16T08:37:54.142Z,79.68
2023-04-16T08:38:54.201Z,81.98
2023-04-16T08:39:54.284Z,80.67
2023-04-16T08:40:54.253Z,81.36
2023-04-16T08:41:54.295Z,80.58
2023-04-16T08:42:54.324Z,76.83
2023-04-16T08:43:54.369Z,79.00
2023-04-16T08:44:54.409Z,79.95
2023-04-16T08:45:54.464Z,76.71
2023-04-16T08:46:54.483Z,77.01
2023-04-16T08:47:54.568Z,76.15
2023-04-16T08:48:55.536Z,75.57
2023-04-16T08:49:55.185Z,76.65
2023-04-16T08:50:55.518Z,76.66
2023-04-16T08:51:54.561Z,76.21
2023-04-16T08:52:54.573Z,75.74
2023-04-16T08:53:54.615Z,76.08
2023-04-16T08:54:56.449Z,77.79
2023-04-16T08:55:54.719Z,75.47
2023-04-16T08:56:54.711Z,77.09
2023-04-16T08:57:54.736Z,74.79
2023-04-16T08:58:54.856Z,76.51
2023-04-16T08:59:54.831Z,75.10
2023-04-16T09:00:54.804Z,74.69
2023-04-16T09:01:54.970Z,72.94
2023-04-16T09:02:55.048Z,73.31
2023-04-16T09:03:55.080Z,74.39
2023-04-16T09:04:55.028Z,73.87
2023-04-16T09:05:54.969Z,72.20
2023-04-16T09:06:55.035Z,73.24
2023-04-16T09:07:55.029Z,71.09
2023-04-16T09:08:55.073Z,68.30
2023-04-16T09:09:55.113Z,69.12
2023-04-16T09:10:55.098Z,69.83
2023-04-16T09:11:55.168Z,68.23
2023-04-16T09:12:55.144Z,66.69
2023-04-16T09:13:55.196Z,67.08
2023-04-16T09:14:55.251Z,68.13
2023-04-16T09:15:55.224Z,67.55
2023-04-16T09:16:55.281Z,66.24
2023-04-16T09:17:55.326Z,69.32
2023-04-16T09:18:55.398Z,67.50
2023-04-16T09:19:55.372Z,65.87
2023-04-16T09:20:55.393Z,67.06
2023-04-16T09:21:55.430Z,69.20
2023-04-16T09:22:55.526Z,68.29
2023-04-16T09:23:55.798Z,67.35
2023-04-16T09:24:55.508Z,68.33
2023-04-16T09:25:55.565Z,67.74
2023-04-16T09:26:55.582Z,70.07
2023-04-16T09:27:55.580Z,72.28
2023-04-16T09:28:55.644Z,69.47
2023-04-16T09:29:55.711Z,69.30
2023-04-16T09:30:55.717Z,68.57
2023-04-16T09:31:55.731Z,67.36
2023-04-16T09:32:55.777Z,72.73
2023-04-16T09:33:55.761Z,71.79
2023-04-16T09:34:55.829Z,72.69
2023-04-16T09:35:55.838Z,73.93
2023-04-16T09:36:55.878Z,75.09
2023-04-16T09:37:55.910Z,73.10
2023-04-16T09:38:57.592Z,75.45
2023-04-16T09:39:56.037Z,75.74
2023-04-16T09:40:56.004Z,70.38
2023-04-16T09:41:55.984Z,69.05
2023-04-16T09:42:56.030Z,66.56
2023-04-16T09:43:56.037Z,64.13
2023-04-16T09:44:57.889Z,64.39
2023-04-16T09:45:56.134Z,63.28
2023-04-16T09:46:56.091Z,63.87
2023-04-16T09:47:56.085Z,61.98
2023-04-16T09:48:56.102Z,61.37
2023-04-16T09:49:56.064Z,61.92
2023-04-16T09:50:56.050Z,64.59
2023-04-16T09:51:56.089Z,62.90
2023-04-16T09:52:56.102Z,64.60
2023-04-16T09:53:56.033Z,65.91
2023-04-16T09:54:56.031Z,66.74
2023-04-16T09:55:56.021Z,65.92
2023-04-16T09:56:56.047Z,65.69
2023-04-16T09:57:55.996Z,64.99
2023-04-16T09:58:56.001Z,66.06
2023-04-16T09:59:55.977Z,66.59
2023-04-16T10:00:56.017Z,66.84
2023-04-16T10:02:12.294Z,65.40
2023-04-16T10:02:57.064Z,65.56
2023-04-16T10:03:56.073Z,63.80
2023-04-16T10:04:55.990Z,63.57
2023-04-16T10:05:55.943Z,61.31
2023-04-16T10:06:55.949Z,61.24
2023-04-16T10:07:55.931Z,60.59
2023-04-16T10:08:55.938Z,61.28
2023-04-16T10:09:55.936Z,59.35
2023-04-16T10:10:55.921Z,60.47
2023-04-16T10:11:55.900Z,61.79
2023-04-16T10:12:55.907Z,59.81
2023-04-16T10:13:55.896Z,61.14
2023-04-16T10:14:55.868Z,58.58
2023-04-16T10:15:55.906Z,62.56
2023-04-16T10:16:55.939Z,60.17
2023-04-16T10:17:55.873Z,58.20
2023-04-16T10:18:55.904Z,61.31
2023-04-16T10:19:55.856Z,63.84
2023-04-16T10:20:55.853Z,64.65
2023-04-16T10:21:55.870Z,64.01
2023-04-16T10:22:55.825Z,65.97
2023-04-16T10:23:55.860Z,62.45
2023-04-16T10:24:55.857Z,61.88
2023-04-16T10:25:57.617Z,61.65
2023-04-16T10:26:55.888Z,63.87
2023-04-16T10:27:55.957Z,64.74
2023-04-16T10:28:55.984Z,65.51
2023-04-16T10:29:56.024Z,63.81
2023-04-16T10:30:56.060Z,61.94
2023-04-16T10:31:56.040Z,57.82
2023-04-16T10:32:57.603Z,62.50
2023-04-16T10:33:56.055Z,64.93
2023-04-16T10:34:56.076Z,64.15
2023-04-16T10:36:07.031Z,65.47
2023-04-16T10:36:57.027Z,65.65
2023-04-16T10:37:56.021Z,65.84
2023-04-16T10:38:56.037Z,65.71
2023-04-16T10:39:56.056Z,66.41
2023-04-16T10:40:56.066Z,68.28
2023-04-16T10:41:55.969Z,67.30
2023-04-16T10:42:55.994Z,68.42
2023-04-16T10:43:56.011Z,68.85
2023-04-16T10:44:55.971Z,68.37
2023-04-16T10:45:56.053Z,66.09
2023-04-16T10:46:55.957Z,69.75
2023-04-16T10:47:56.039Z,67.46
2023-04-16T10:48:55.957Z,65.73
2023-04-16T10:49:55.959Z,65.31
2023-04-16T10:50:55.944Z,65.88
2023-04-16T10:51:55.959Z,66.90
2023-04-16T10:52:55.920Z,64.72
2023-04-16T10:53:55.936Z,65.44
2023-04-16T10:54:55.905Z,63.07
2023-04-16T10:55:55.969Z,65.44
2023-04-16T10:56:55.917Z,68.41
2023-04-16T10:57:55.898Z,65.56
2023-04-16T10:58:55.909Z,66.00
2023-04-16T10:59:55.939Z,69.15
2023-04-16T11:00:55.992Z,69.11
2023-04-16T11:01:56.108Z,65.97
2023-04-16T11:02:56.085Z,64.74
2023-04-16T11:03:56.221Z,66.10
2023-04-16T11:04:56.154Z,64.32
2023-04-16T11:05:56.057Z,66.85
2023-04-16T11:06:56.058Z,65.32
2023-04-16T11:07:56.062Z,65.41
2023-04-16T11:08:56.109Z,64.75
2023-04-16T11:09:56.270Z,64.18
2023-04-16T11:10:56.179Z,63.63
2023-04-16T11:11:56.156Z,64.05
2023-04-16T11:12:56.210Z,66.48
2023-04-16T11:13:56.242Z,67.70
2023-04-16T11:14:56.242Z,67.77
2023-04-16T11:15:56.359Z,66.96
2023-04-16T11:16:56.678Z,67.56
2023-04-16T11:17:56.391Z,66.38
2023-04-16T11:18:56.884Z,67.38
2023-04-16T11:19:56.368Z,65.59
2023-04-16T11:20:56.374Z,69.15
2023-04-16T11:21:56.416Z,67.48
2023-04-16T11:22:56.486Z,70.13
2023-04-16T11:23:56.410Z,69.14
2023-04-16T11:24:56.504Z,66.37
2023-04-16T11:25:56.513Z,67.88
2023-04-16T11:26:56.481Z,68.72
2023-04-16T11:27:56.539Z,66.37
2023-04-16T11:28:56.841Z,66.64
2023-04-16T11:29:56.574Z,67.64
2023-04-16T11:30:56.601Z,67.62
2023-04-16T11:31:56.607Z,67.59
2023-04-16T11:32:56.628Z,68.50
2023-04-16T11:33:56.582Z,67.70
2023-04-16T11:34:56.671Z,66.84
2023-04-16T11:35:56.669Z,66.46
2023-04-16T11:36:56.690Z,67.33
2023-04-16T11:37:56.675Z,66.66
2023-04-16T11:38:56.733Z,65.70
2023-04-16T11:39:56.733Z,64.58
2023-04-16T11:40:56.806Z,65.41
2023-04-16T11:41:56.829Z,64.58
2023-04-16T11:42:58.669Z,64.33
2023-04-16T11:43:56.820Z,66.57
2023-04-16T11:44:56.785Z,64.93
2023-04-16T11:45:56.804Z,63.08
2023-04-16T11:46:56.820Z,64.52
2023-04-16T11:47:56.906Z,63.38
2023-04-16T11:48:56.828Z,59.54
2023-04-16T11:49:56.735Z,63.32
2023-04-16T11:50:56.770Z,63.22
2023-04-16T11:51:56.753Z,59.80
2023-04-16T11:52:56.736Z,63.61
2023-04-16T11:53:56.737Z,61.58
2023-04-16T11:54:56.754Z,61.08
2023-04-16T11:55:56.735Z,60.43
2023-04-16T11:56:56.732Z,61.55
2023-04-16T11:57:56.707Z,59.58
2023-04-16T11:58:56.721Z,58.07
2023-04-16T12:00:02.140Z,60.42
2023-04-16T12:00:57.742Z,60.61
2023-04-16T12:01:56.816Z,60.58
2023-04-16T12:02:56.900Z,60.61
2023-04-16T12:03:56.977Z,60.67
2023-04-16T12:04:56.687Z,60.42
2023-04-16T12:05:56.627Z,60.42
2023-04-16T12:06:56.640Z,59.99
2023-04-16T12:07:56.660Z,57.70
2023-04-16T12:08:56.640Z,58.77
2023-04-16T12:09:56.640Z,57.55
2023-04-16T12:10:56.639Z,56.91
2023-04-16T12:11:56.595Z,57.40
2023-04-16T12:12:56.589Z,60.15
2023-04-16T12:13:56.591Z,58.83
2023-04-16T12:14:56.601Z,59.90
2023-04-16T12:15:56.599Z,62.09
2023-04-16T12:16:56.971Z,58.59
2023-04-16T12:17:56.623Z,55.70
2023-04-16T12:18:56.575Z,56.06
2023-04-16T12:19:56.566Z,55.02
2023-04-16T12:20:56.555Z,53.71
2023-04-16T12:21:56.550Z,52.33
2023-04-16T12:22:56.571Z,53.64
2023-04-16T12:23:56.587Z,54.42
2023-04-16T12:24:56.630Z,51.54
2023-04-16T12:25:56.691Z,48.58
2023-04-16T12:26:56.658Z,49.54
2023-04-16T12:27:56.681Z,50.24
2023-04-16T12:28:56.709Z,51.61
2023-04-16T12:29:56.725Z,49.62
2023-04-16T12:30:56.757Z,51.11
2023-04-16T12:31:56.775Z,49.36
2023-04-16T12:32:59.123Z,52.64
2023-04-16T12:33:56.821Z,54.31
2023-04-16T12:34:56.860Z,51.83
2023-04-16T12:35:56.892Z,51.02
2023-04-16T12:36:56.893Z,51.90
2023-04-16T12:37:56.915Z,51.37
2023-04-16T12:38:56.936Z,55.46